createdAt,value
2023-04-27T00:04:28.720Z,4.93
2023-04-27T00:09:31.907Z,5.50
2023-04-27T00:14:33.583Z,5.05
2023-04-27T00:19:35.195Z,4.78
2023-04-27T00:24:38.141Z,5.40
2023-04-27T00:29:39.798Z,5.15
2023-04-27T00:34:41.545Z,5.45
2023-04-27T00:39:44.505Z,4.57
2023-04-27T00:44:46.450Z,5.47
2023-04-27T00:49:48.076Z,5.35
2023-04-27T00:54:51.992Z,5.20
2023-04-27T00:59:55.451Z,5.20
2023-04-27T01:04:57.139Z,5.20
2023-04-27T01:10:00.115Z,5.35
2023-04-27T01:15:01.856Z,5.72
2023-04-27T01:20:04.235Z,4.90
2023-04-27T01:25:08.227Z,5.47
2023-04-27T01:30:10.100Z,5.20
2023-04-27T01:35:11.833Z,5.15
2023-04-27T01:40:15.347Z,5.38
2023-04-27T01:45:17.026Z,5.63
2023-04-27T01:50:18.845Z,5.28
2023-04-27T01:55:21.908Z,5.38
2023-04-27T02:00:23.869Z,5.40
2023-04-27T02:05:27.495Z,5.70
2023-04-27T02:10:30.532Z,5.80
2023-04-27T02:15:32.221Z,5.28
2023-04-27T02:20:34.985Z,5.00
2023-04-27T02:25:38.073Z,5.10
2023-04-27T02:30:40.081Z,5.43
2023-04-27T02:35:41.992Z,5.53
2023-04-27T02:40:44.967Z,5.10
2023-04-27T02:45:46.696Z,5.18
2023-04-27T02:50:48.309Z,5.47
2023-04-27T02:55:51.305Z,5.63
2023-04-27T03:00:55.832Z,5.90
2023-04-27T03:05:57.509Z,5.35
2023-04-27T03:11:00.495Z,5.03
2023-04-27T03:16:02.386Z,5.22
2023-04-27T03:21:07.925Z,4.57
2023-04-27T03:26:12.213Z,5.40
2023-04-27T03:31:14.655Z,5.10
2023-04-27T03:36:16.417Z,7.13
2023-04-27T03:41:19.421Z,5.53
2023-04-27T03:46:21.180Z,5.40
2023-04-27T03:51:23.792Z,6.55
2023-04-27T03:56:26.764Z,5.18
2023-04-27T04:01:28.748Z,5.70
2023-04-27T04:06:30.704Z,5.70
2023-04-27T04:11:33.739Z,5.15
2023-04-27T04:16:36.951Z,5.10
2023-04-27T04:21:38.606Z,5.47
2023-04-27T04:26:41.776Z,5.50
2023-04-27T04:31:43.686Z,5.05
2023-04-27T04:36:45.430Z,5.35
2023-04-27T04:41:48.497Z,5.90
2023-04-27T04:46:50.864Z,4.85
2023-04-27T04:51:52.561Z,5.07
2023-04-27T04:56:55.638Z,5.47
2023-04-27T05:01:57.506Z,4.95
2023-04-27T05:06:59.625Z,5.10
2023-04-27T05:12:03.051Z,4.80
2023-04-27T05:17:04.844Z,5.28
2023-04-27T05:22:06.426Z,4.90
2023-04-27T05:27:09.472Z,4.80
2023-04-27T05:32:11.041Z,4.80
2023-04-27T05:37:12.665Z,4.60
2023-04-27T05:42:15.597Z,5.13
2023-04-27T05:47:17.234Z,5.10
2023-04-27T05:52:18.988Z,4.97
2023-04-27T05:57:21.990Z,5.65
2023-04-27T06:02:23.714Z,6.53
2023-04-27T06:07:25.492Z,5.68
2023-04-27T06:12:28.462Z,5.22
2023-04-27T06:17:30.110Z,5.32
2023-04-27T06:22:31.780Z,5.20
2023-04-27T06:27:34.928Z,5.35
2023-04-27T06:32:36.546Z,4.75
2023-04-27T06:37:38.184Z,5.15
2023-04-27T06:42:41.164Z,4.40
2023-04-27T06:47:43.704Z,4.13
2023-04-27T06:52:45.383Z,4.72
2023-04-27T06:57:48.375Z,4.50
2023-04-27T07:02:50.120Z,4.50
2023-04-27T07:07:52.225Z,4.05
2023-04-27T07:12:55.254Z,3.97
2023-04-27T07:17:56.986Z,3.95
2023-04-27T07:22:58.691Z,4.78
2023-04-27T07:28:01.641Z,3.80
2023-04-27T07:33:03.475Z,4.13
2023-04-27T07:38:05.287Z,4.45
2023-04-27T07:43:08.578Z,3.78
2023-04-27T07:48:10.422Z,4.22
2023-04-27T07:53:12.098Z,3.80
2023-04-27T07:58:15.130Z,4.57
2023-04-27T08:03:16.999Z,3.80
2023-04-27T08:08:18.979Z,3.65
2023-04-27T08:13:23.217Z,4.07
2023-04-27T08:18:26.121Z,4.13
2023-04-27T08:23:27.884Z,4.30
2023-04-27T08:28:30.874Z,4.32
2023-04-27T08:33:32.842Z,3.35
2023-04-27T08:38:35.100Z,3.60
2023-04-27T08:43:38.117Z,4.10
2023-04-27T08:48:39.749Z,4.35
2023-04-27T08:53:46.141Z,3.85
2023-04-27T08:58:49.125Z,4.32
2023-04-27T09:03:56.216Z,4.00
2023-04-27T09:08:58.521Z,4.15
2023-04-27T09:14:03.781Z,4.00
2023-04-27T09:19:05.497Z,4.50
2023-04-27T09:24:11.140Z,4.50
2023-04-27T09:29:14.501Z,4.43
2023-04-27T09:34:16.377Z,5.10
2023-04-27T09:39:18.910Z,4.18
2023-04-27T09:44:22.124Z,4.30
2023-04-27T09:49:24.845Z,4.20
2023-04-27T09:54:28.885Z,5.22
2023-04-27T09:59:42.116Z,4.60
2023-04-27T10:05:02.893Z,4.30
2023-04-27T10:10:05.075Z,4.20
2023-04-27T10:15:16.980Z,4.80
2023-04-27T10:20:29.060Z,4.57
2023-04-27T10:25:37.873Z,4.82
2023-04-27T10:30:44.829Z,4.50
2023-04-27T10:35:54.670Z,4.85
2023-04-27T10:40:59.084Z,4.97
2023-04-27T10:46:12.465Z,5.97
2023-04-27T10:51:15.313Z,5.53
2023-04-27T10:56:18.764Z,7.05
2023-04-27T11:01:27.848Z,4.82
2023-04-27T11:06:30.566Z,5.93
2023-04-27T11:11:32.341Z,6.00
2023-04-27T11:16:36.581Z,6.63
2023-04-27T11:21:38.504Z,4.93
2023-04-27T11:26:40.270Z,5.07
2023-04-27T11:31:44.287Z,5.78
2023-04-27T11:37:03.701Z,4.30
2023-04-27T11:42:20.591Z,4.40
2023-04-27T11:47:24.470Z,4.63
2023-04-27T11:52:28.327Z,4.90
2023-04-27T11:57:31.050Z,4.60
2023-04-27T12:02:34.116Z,4.43
2023-04-27T12:07:35.840Z,5.30
2023-04-27T12:12:37.644Z,4.60
2023-04-27T12:17:40.879Z,3.88
2023-04-27T12:22:42.640Z,3.92
2023-04-27T12:27:44.451Z,3.45
2023-04-27T12:32:47.475Z,3.30
2023-04-27T12:37:49.131Z,3.70
2023-04-27T12:42:50.906Z,3.50
2023-04-27T12:48:02.841Z,3.60
2023-04-27T12:53:05.761Z,3.63
2023-04-27T12:58:07.560Z,3.78
2023-04-27T13:03:10.744Z,4.07
2023-04-27T13:08:13.182Z,3.72
2023-04-27T13:13:14.933Z,3.92
2023-04-27T13:18:18.015Z,4.05
2023-04-27T13:23:19.737Z,3.92
2023-04-27T13:28:21.370Z,4.20
2023-04-27T13:33:24.407Z,3.25
2023-04-27T13:38:26.185Z,3.55
2023-04-27T13:43:27.931Z,3.63
2023-04-27T13:48:31.023Z,3.35
2023-04-27T13:53:32.801Z,3.58
2023-04-27T13:58:34.411Z,3.42
2023-04-27T14:03:37.653Z,3.25
2023-04-27T14:08:39.591Z,3.17
2023-04-27T14:13:41.358Z,3.50
2023-04-27T14:18:44.399Z,3.67
2023-04-27T14:23:46.082Z,3.33
2023-04-27T14:28:47.939Z,3.75
2023-04-27T14:33:50.977Z,3.13
2023-04-27T14:38:52.746Z,3.95
2023-04-27T14:43:54.455Z,3.00
2023-04-27T14:48:57.512Z,4.03
2023-04-27T14:53:59.138Z,3.65
2023-04-27T14:59:00.782Z,3.00
2023-04-27T15:04:04.194Z,3.63
2023-04-27T15:09:05.928Z,3.63
2023-04-27T15:14:07.857Z,3.63
2023-04-27T15:19:10.953Z,3.70
2023-04-27T15:24:12.558Z,3.75
2023-04-27T15:29:14.421Z,3.90
2023-04-27T15:34:17.627Z,3.90
2023-04-27T15:39:19.314Z,3.83
2023-04-27T15:44:20.912Z,3.55
2023-04-27T15:49:23.867Z,3.75
2023-04-27T15:54:25.726Z,4.60
2023-04-27T15:59:28.987Z,3.80
2023-04-27T16:04:31.993Z,5.18
2023-04-27T16:09:33.889Z,4.05
2023-04-27T16:14:35.659Z,4.50
2023-04-27T16:19:38.621Z,3.67
2023-04-27T16:24:40.227Z,5.63
2023-04-27T16:29:41.859Z,4.18
2023-04-27T16:34:44.803Z,4.30
2023-04-27T16:39:46.552Z,4.00
2023-04-27T16:44:48.292Z,3.35
2023-04-27T16:49:51.615Z,3.45
2023-04-27T16:54:53.363Z,3.30
2023-04-27T16:59:55.034Z,3.35
2023-04-27T17:04:58.087Z,3.30
2023-04-27T17:09:59.944Z,2.88
2023-04-27T17:15:01.704Z,3.53
2023-04-27T17:20:06.076Z,3.13
2023-04-27T17:25:08.202Z,3.42
2023-04-27T17:30:10.344Z,3.45
2023-04-27T17:35:13.538Z,9.02
2023-04-27T17:40:15.299Z,3.53
2023-04-27T17:45:17.000Z,3.67
2023-04-27T17:50:20.095Z,3.25
2023-04-27T17:55:22.323Z,3.70
2023-04-27T18:00:24.030Z,3.45
2023-04-27T18:05:27.396Z,3.90
2023-04-27T18:10:29.123Z,4.30
2023-04-27T18:15:31.032Z,3.67
2023-04-27T18:20:34.305Z,4.13
2023-04-27T18:25:35.895Z,4.38
2023-04-27T18:30:37.512Z,4.55
2023-04-27T18:35:40.663Z,5.10
2023-04-27T18:40:42.486Z,5.20
2023-04-27T18:45:44.139Z,4.63
2023-04-27T18:50:47.307Z,3.55
2023-04-27T18:55:48.978Z,4.40
2023-04-27T19:00:50.681Z,4.60
2023-04-27T19:05:53.686Z,4.30
2023-04-27T19:10:55.394Z,5.00
2023-04-27T19:15:57.368Z,4.70
2023-04-27T19:21:00.413Z,4.63
2023-04-27T19:26:12.005Z,5.03
2023-04-27T19:31:15.203Z,4.82
2023-04-27T19:36:18.241Z,4.90
2023-04-27T19:41:19.860Z,5.30
2023-04-27T19:46:21.596Z,5.53
2023-04-27T19:51:24.669Z,5.40
2023-04-27T19:56:26.388Z,7.03
2023-04-27T20:01:28.068Z,6.65
2023-04-27T20:06:31.224Z,5.40
2023-04-27T20:11:33.005Z,6.40
2023-04-27T20:16:35.058Z,6.72
2023-04-27T20:21:38.278Z,6.60
2023-04-27T20:26:40.039Z,5.97
2023-04-27T20:31:41.735Z,7.57
2023-04-27T20:36:44.793Z,6.22
2023-04-27T20:41:46.447Z,6.35
2023-04-27T20:46:48.404Z,6.85
2023-04-27T20:51:51.408Z,5.78
2023-04-27T20:56:53.055Z,7.75
2023-04-27T21:01:54.784Z,6.53
2023-04-27T21:06:57.746Z,6.20
2023-04-27T21:11:59.437Z,6.32
2023-04-27T21:17:01.480Z,6.57
2023-04-27T21:22:04.493Z,6.32
2023-04-27T21:27:06.289Z,6.78
2023-04-27T21:32:07.999Z,6.43
2023-04-27T21:37:10.949Z,6.57
2023-04-27T21:42:12.541Z,6.55
2023-04-27T21:47:14.143Z,6.53
2023-04-27T21:52:17.053Z,6.90
2023-04-27T21:57:20.015Z,7.03
2023-04-27T22:02:21.970Z,7.07
2023-04-27T22:07:25.048Z,6.30
2023-04-27T22:12:26.655Z,6.05
2023-04-27T22:17:28.387Z,5.95
2023-04-27T22:22:31.403Z,5.85
2023-04-27T22:27:42.126Z,6.35
2023-04-27T22:32:46.359Z,5.78
2023-04-27T22:37:49.303Z,6.32
2023-04-27T22:42:50.952Z,5.70
2023-04-27T22:47:52.623Z,6.22
2023-04-27T22:52:55.651Z,5.88
2023-04-27T22:57:57.189Z,6.05
2023-04-27T23:02:58.910Z,5.82
2023-04-27T23:08:01.962Z,6.43
2023-04-27T23:13:03.520Z,6.30
2023-04-27T23:18:05.317Z,5.43
2023-04-27T23:23:08.259Z,6.30
2023-04-27T23:28:09.862Z,5.82
2023-04-27T23:33:11.457Z,5.63
2023-04-27T23:38:14.370Z,5.63
2023-04-27T23:43:17.050Z,5.68
2023-04-27T23:48:18.798Z,5.50
2023-04-27T23:53:21.802Z,5.65
2023-04-27T23:58:23.438Z,5.30
